sensor_id;sensor_type;location;lat;lon;timestamp;P1;durP1;ratioP1;P2;durP2;ratioP2
67665;SDS011;54448;51.472;-2.574;2023-11-19T00:00:30;42.95;;;4.53;;
67665;SDS011;54448;51.472;-2.574;2023-11-19T00:02:56;30.58;;;4.15;;
67665;SDS011;54448;51.472;-2.574;2023-11-19T00:05:21;34.10;;;4.97;;
67665;SDS011;54448;51.472;-2.574;2023-11-19T00:07:46;34.30;;;4.82;;
67665;SDS011;54448;51.472;-2.574;2023-11-19T00:10:13;33.78;;;4.78;;
67665;SDS011;54448;51.472;-2.574;2023-11-19T00:12:40;37.85;;;4.05;;
67665;SDS011;54448;51.472;-2.574;2023-11-19T00:15:09;41.70;;;5.30;;
67665;SDS011;54448;51.472;-2.574;2023-11-19T00:17:39;36.55;;;3.78;;
67665;SDS011;54448;51.472;-2.574;2023-11-19T00:20:10;30.65;;;3.80;;
67665;SDS011;54448;51.472;-2.574;2023-11-19T00:22:36;28.02;;;3.90;;
67665;SDS011;54448;51.472;-2.574;2023-11-19T00:25:02;43.40;;;4.80;;
67665;SDS011;54448;51.472;-2.574;2023-11-19T00:27:28;39.13;;;4.20;;
67665;SDS011;54448;51.472;-2.574;2023-11-19T00:29:54;37.65;;;5.32;;
67665;SDS011;54448;51.472;-2.574;2023-11-19T00:32:19;34.53;;;4.60;;
67665;SDS011;54448;51.472;-2.574;2023-11-19T00:34:44;36.20;;;4.50;;
67665;SDS011;54448;51.472;-2.574;2023-11-19T00:37:10;43.50;;;5.07;;
67665;SDS011;54448;51.472;-2.574;2023-11-19T00:39:35;24.67;;;3.30;;
67665;SDS011;54448;51.472;-2.574;2023-11-19T00:42:01;26.65;;;4.78;;
67665;SDS011;54448;51.472;-2.574;2023-11-19T00:44:26;34.05;;;3.97;;
67665;SDS011;54448;51.472;-2.574;2023-11-19T00:46:52;28.98;;;3.55;;
67665;SDS011;54448;51.472;-2.574;2023-11-19T00:49:17;36.50;;;4.68;;
67665;SDS011;54448;51.472;-2.574;2023-11-19T00:51:43;41.92;;;5.13;;
67665;SDS011;54448;51.472;-2.574;2023-11-19T00:54:08;42.35;;;5.63;;
67665;SDS011;54448;51.472;-2.574;2023-11-19T00:56:33;33.72;;;3.45;;
67665;SDS011;54448;51.472;-2.574;2023-11-19T00:58:59;29.10;;;4.30;;
67665;SDS011;54448;51.472;-2.574;2023-11-19T01:01:25;28.10;;;3.65;;
67665;SDS011;54448;51.472;-2.574;2023-11-19T01:03:51;34.08;;;4.63;;
67665;SDS011;54448;51.472;-2.574;2023-11-19T01:06:26;24.30;;;3.45;;
67665;SDS011;54448;51.472;-2.574;2023-11-19T01:08:54;30.58;;;4.68;;
67665;SDS011;54448;51.472;-2.574;2023-11-19T01:11:24;34.28;;;4.13;;
67665;SDS011;54448;51.472;-2.574;2023-11-19T01:13:50;35.10;;;4.40;;
67665;SDS011;54448;51.472;-2.574;2023-11-19T01:16:16;30.75;;;3.53;;
67665;SDS011;54448;51.472;-2.574;2023-11-19T01:18:42;27.33;;;3.20;;
67665;SDS011;54448;51.472;-2.574;2023-11-19T01:21:08;37.13;;;5.20;;
67665;SDS011;54448;51.472;-2.574;2023-11-19T01:23:34;31.65;;;3.58;;
67665;SDS011;54448;51.472;-2.574;2023-11-19T01:25:59;32.97;;;3.92;;
67665;SDS011;54448;51.472;-2.574;2023-11-19T01:28:25;28.25;;;3.85;;
67665;SDS011;54448;51.472;-2.574;2023-11-19T01:30:50;39.75;;;4.13;;
67665;SDS011;54448;51.472;-2.574;2023-11-19T01:33:16;25.30;;;3.45;;
67665;SDS011;54448;51.472;-2.574;2023-11-19T01:35:41;29.00;;;3.17;;
67665;SDS011;54448;51.472;-2.574;2023-11-19T01:38:07;25.13;;;4.50;;
67665;SDS011;54448;51.472;-2.574;2023-11-19T01:40:33;30.35;;;4.03;;
67665;SDS011;54448;51.472;-2.574;2023-11-19T01:42:59;39.83;;;3.95;;
67665;SDS011;54448;51.472;-2.574;2023-11-19T01:45:28;27.40;;;3.53;;
67665;SDS011;54448;51.472;-2.574;2023-11-19T01:47:56;31.48;;;3.28;;
67665;SDS011;54448;51.472;-2.574;2023-11-19T01:50:22;34.35;;;5.15;;
67665;SDS011;54448;51.472;-2.574;2023-11-19T01:52:50;28.58;;;4.13;;
67665;SDS011;54448;51.472;-2.574;2023-11-19T01:55:17;35.72;;;4.18;;
67665;SDS011;54448;51.472;-2.574;2023-11-19T01:57:45;29.25;;;3.78;;
67665;SDS011;54448;51.472;-2.574;2023-11-19T02:00:11;30.90;;;3.92;;
67665;SDS011;54448;51.472;-2.574;2023-11-19T02:02:37;37.70;;;4.43;;
67665;SDS011;54448;51.472;-2.574;2023-11-19T02:05:05;34.53;;;4.07;;
67665;SDS011;54448;51.472;-2.574;2023-11-19T02:07:31;37.90;;;4.38;;
67665;SDS011;54448;51.472;-2.574;2023-11-19T02:09:57;35.42;;;4.10;;
67665;SDS011;54448;51.472;-2.574;2023-11-19T02:12:25;27.90;;;4.28;;
67665;SDS011;54448;51.472;-2.574;2023-11-19T02:14:53;35.00;;;4.47;;
67665;SDS011;54448;51.472;-2.574;2023-11-19T02:17:29;21.23;;;3.60;;
67665;SDS011;54448;51.472;-2.574;2023-11-19T02:19:59;27.65;;;4.50;;
67665;SDS011;54448;51.472;-2.574;2023-11-19T02:22:24;29.77;;;4.35;;
67665;SDS011;54448;51.472;-2.574;2023-11-19T02:24:51;26.90;;;3.33;;
67665;SDS011;54448;51.472;-2.574;2023-11-19T02:30:11;34.60;;;4.55;;
67665;SDS011;54448;51.472;-2.574;2023-11-19T02:32:40;34.15;;;3.67;;
67665;SDS011;54448;51.472;-2.574;2023-11-19T02:35:06;29.05;;;3.85;;
67665;SDS011;54448;51.472;-2.574;2023-11-19T02:37:33;25.40;;;2.80;;
67665;SDS011;54448;51.472;-2.574;2023-11-19T02:39:59;29.20;;;3.92;;
67665;SDS011;54448;51.472;-2.574;2023-11-19T02:42:34;26.20;;;3.72;;
67665;SDS011;54448;51.472;-2.574;2023-11-19T02:45:00;26.23;;;3.30;;
67665;SDS011;54448;51.472;-2.574;2023-11-19T02:47:27;28.40;;;4.25;;
67665;SDS011;54448;51.472;-2.574;2023-11-19T02:49:55;36.30;;;4.00;;
67665;SDS011;54448;51.472;-2.574;2023-11-19T02:52:21;24.58;;;3.33;;
67665;SDS011;54448;51.472;-2.574;2023-11-19T02:54:46;30.65;;;3.75;;
67665;SDS011;54448;51.472;-2.574;2023-11-19T02:57:12;31.08;;;3.78;;
67665;SDS011;54448;51.472;-2.574;2023-11-19T02:59:38;29.52;;;3.65;;
67665;SDS011;54448;51.472;-2.574;2023-11-19T03:02:07;25.88;;;3.75;;
67665;SDS011;54448;51.472;-2.574;2023-11-19T03:04:36;32.63;;;3.75;;
67665;SDS011;54448;51.472;-2.574;2023-11-19T03:07:04;28.40;;;4.35;;
67665;SDS011;54448;51.472;-2.574;2023-11-19T03:09:30;44.80;;;4.43;;
67665;SDS011;54448;51.472;-2.574;2023-11-19T03:11:55;28.30;;;3.58;;
67665;SDS011;54448;51.472;-2.574;2023-11-19T03:14:21;32.03;;;4.22;;
67665;SDS011;54448;51.472;-2.574;2023-11-19T03:16:47;21.70;;;2.95;;
67665;SDS011;54448;51.472;-2.574;2023-11-19T03:19:13;30.35;;;4.20;;
67665;SDS011;54448;51.472;-2.574;2023-11-19T03:21:38;33.22;;;4.22;;
67665;SDS011;54448;51.472;-2.574;2023-11-19T03:24:04;31.17;;;3.72;;
67665;SDS011;54448;51.472;-2.574;2023-11-19T03:26:30;35.22;;;4.65;;
67665;SDS011;54448;51.472;-2.574;2023-11-19T03:28:55;25.98;;;3.15;;
67665;SDS011;54448;51.472;-2.574;2023-11-19T03:31:22;28.52;;;2.90;;
67665;SDS011;54448;51.472;-2.574;2023-11-19T03:33:48;31.33;;;4.18;;
67665;SDS011;54448;51.472;-2.574;2023-11-19T03:36:13;36.50;;;4.30;;
67665;SDS011;54448;51.472;-2.574;2023-11-19T03:38:39;31.48;;;4.03;;
67665;SDS011;54448;51.472;-2.574;2023-11-19T03:41:13;36.53;;;3.85;;
67665;SDS011;54448;51.472;-2.574;2023-11-19T03:43:39;37.63;;;4.20;;
67665;SDS011;54448;51.472;-2.574;2023-11-19T03:46:26;48.25;;;4.68;;
67665;SDS011;54448;51.472;-2.574;2023-11-19T03:48:52;40.15;;;5.65;;
67665;SDS011;54448;51.472;-2.574;2023-11-19T03:51:17;34.15;;;4.90;;
67665;SDS011;54448;51.472;-2.574;2023-11-19T03:53:43;39.20;;;3.78;;
67665;SDS011;54448;51.472;-2.574;2023-11-19T03:56:09;50.15;;;5.90;;
67665;SDS011;54448;51.472;-2.574;2023-11-19T03:58:36;35.35;;;4.45;;
67665;SDS011;54448;51.472;-2.574;2023-11-19T04:01:01;32.17;;;3.35;;
67665;SDS011;54448;51.472;-2.574;2023-11-19T04:03:27;37.53;;;3.95;;
67665;SDS011;54448;51.472;-2.574;2023-11-19T04:05:53;28.63;;;3.42;;
67665;SDS011;54448;51.472;-2.574;2023-11-19T04:08:18;27.00;;;3.28;;
67665;SDS011;54448;51.472;-2.574;2023-11-19T04:10:44;32.95;;;3.25;;
67665;SDS011;54448;51.472;-2.574;2023-11-19T04:13:10;17.55;;;2.80;;
67665;SDS011;54448;51.472;-2.574;2023-11-19T04:15:35;29.27;;;3.13;;
67665;SDS011;54448;51.472;-2.574;2023-11-19T04:18:01;25.15;;;3.30;;
67665;SDS011;54448;51.472;-2.574;2023-11-19T04:20:26;19.67;;;2.90;;
67665;SDS011;54448;51.472;-2.574;2023-11-19T04:22:52;25.70;;;3.72;;
67665;SDS011;54448;51.472;-2.574;2023-11-19T04:25:18;27.77;;;3.38;;
67665;SDS011;54448;51.472;-2.574;2023-11-19T04:27:44;37.90;;;3.53;;
67665;SDS011;54448;51.472;-2.574;2023-11-19T04:30:10;16.83;;;2.60;;
67665;SDS011;54448;51.472;-2.574;2023-11-19T04:32:36;32.10;;;3.17;;
67665;SDS011;54448;51.472;-2.574;2023-11-19T04:35:02;23.10;;;3.50;;
67665;SDS011;54448;51.472;-2.574;2023-11-19T04:37:28;24.90;;;3.10;;
67665;SDS011;54448;51.472;-2.574;2023-11-19T04:39:54;23.02;;;3.17;;
67665;SDS011;54448;51.472;-2.574;2023-11-19T04:42:21;19.02;;;2.78;;
67665;SDS011;54448;51.472;-2.574;2023-11-19T04:44:47;34.90;;;3.35;;
67665;SDS011;54448;51.472;-2.574;2023-11-19T04:47:12;21.58;;;2.65;;
67665;SDS011;54448;51.472;-2.574;2023-11-19T04:49:42;29.08;;;3.72;;
67665;SDS011;54448;51.472;-2.574;2023-11-19T04:52:10;27.73;;;4.25;;
67665;SDS011;54448;51.472;-2.574;2023-11-19T04:54:45;31.90;;;3.58;;
67665;SDS011;54448;51.472;-2.574;2023-11-19T04:57:11;34.90;;;4.15;;
67665;SDS011;54448;51.472;-2.574;2023-11-19T04:59:37;23.45;;;3.47;;
67665;SDS011;54448;51.472;-2.574;2023-11-19T05:02:03;27.02;;;3.55;;
67665;SDS011;54448;51.472;-2.574;2023-11-19T05:04:29;25.20;;;2.35;;
67665;SDS011;54448;51.472;-2.574;2023-11-19T05:06:55;27.52;;;2.70;;
67665;SDS011;54448;51.472;-2.574;2023-11-19T05:09:20;22.98;;;3.38;;
67665;SDS011;54448;51.472;-2.574;2023-11-19T05:11:45;28.75;;;2.60;;
67665;SDS011;54448;51.472;-2.574;2023-11-19T05:14:11;26.58;;;3.33;;
67665;SDS011;54448;51.472;-2.574;2023-11-19T05:16:39;23.52;;;3.15;;
67665;SDS011;54448;51.472;-2.574;2023-11-19T05:19:05;31.08;;;3.45;;
67665;SDS011;54448;51.472;-2.574;2023-11-19T05:21:30;28.65;;;3.97;;
67665;SDS011;54448;51.472;-2.574;2023-11-19T05:23:55;32.15;;;3.67;;
67665;SDS011;54448;51.472;-2.574;2023-11-19T05:26:22;32.28;;;3.35;;
67665;SDS011;54448;51.472;-2.574;2023-11-19T05:28:48;41.33;;;3.88;;
67665;SDS011;54448;51.472;-2.574;2023-11-19T05:31:14;39.10;;;4.63;;
67665;SDS011;54448;51.472;-2.574;2023-11-19T05:33:40;39.80;;;4.03;;
67665;SDS011;54448;51.472;-2.574;2023-11-19T05:36:06;28.92;;;3.25;;
67665;SDS011;54448;51.472;-2.574;2023-11-19T05:38:33;35.65;;;3.67;;
67665;SDS011;54448;51.472;-2.574;2023-11-19T05:40:59;34.90;;;3.60;;
67665;SDS011;54448;51.472;-2.574;2023-11-19T05:43:24;20.45;;;2.45;;
67665;SDS011;54448;51.472;-2.574;2023-11-19T05:45:50;28.55;;;3.95;;
67665;SDS011;54448;51.472;-2.574;2023-11-19T05:48:15;27.48;;;3.53;;
67665;SDS011;54448;51.472;-2.574;2023-11-19T05:50:42;29.67;;;3.03;;
67665;SDS011;54448;51.472;-2.574;2023-11-19T05:53:07;19.45;;;2.72;;
67665;SDS011;54448;51.472;-2.574;2023-11-19T05:55:38;29.75;;;3.53;;
67665;SDS011;54448;51.472;-2.574;2023-11-19T05:58:11;34.08;;;4.30;;
67665;SDS011;54448;51.472;-2.574;2023-11-19T06:00:37;30.20;;;3.50;;
67665;SDS011;54448;51.472;-2.574;2023-11-19T06:03:07;21.48;;;3.28;;
67665;SDS011;54448;51.472;-2.574;2023-11-19T06:05:32;36.97;;;3.97;;
67665;SDS011;54448;51.472;-2.574;2023-11-19T06:07:59;25.27;;;3.63;;
67665;SDS011;54448;51.472;-2.574;2023-11-19T06:10:25;36.05;;;4.40;;
67665;SDS011;54448;51.472;-2.574;2023-11-19T06:12:58;35.97;;;3.50;;
67665;SDS011;54448;51.472;-2.574;2023-11-19T06:15:25;36.65;;;4.20;;
67665;SDS011;54448;51.472;-2.574;2023-11-19T06:17:51;35.70;;;4.50;;
67665;SDS011;54448;51.472;-2.574;2023-11-19T06:20:18;28.52;;;4.00;;
67665;SDS011;54448;51.472;-2.574;2023-11-19T06:22:45;21.08;;;3.28;;
67665;SDS011;54448;51.472;-2.574;2023-11-19T06:25:11;19.48;;;3.03;;
67665;SDS011;54448;51.472;-2.574;2023-11-19T06:27:36;31.60;;;3.05;;
67665;SDS011;54448;51.472;-2.574;2023-11-19T06:30:02;23.95;;;3.60;;
67665;SDS011;54448;51.472;-2.574;2023-11-19T06:32:28;21.83;;;2.95;;
67665;SDS011;54448;51.472;-2.574;2023-11-19T06:34:54;25.55;;;3.30;;
67665;SDS011;54448;51.472;-2.574;2023-11-19T06:37:19;26.40;;;2.63;;
67665;SDS011;54448;51.472;-2.574;2023-11-19T06:39:45;31.75;;;3.35;;
67665;SDS011;54448;51.472;-2.574;2023-11-19T06:42:10;32.50;;;3.35;;
67665;SDS011;54448;51.472;-2.574;2023-11-19T06:44:36;11.93;;;1.98;;
67665;SDS011;54448;51.472;-2.574;2023-11-19T06:47:01;34.80;;;3.75;;
67665;SDS011;54448;51.472;-2.574;2023-11-19T06:49:27;30.75;;;3.40;;
67665;SDS011;54448;51.472;-2.574;2023-11-19T06:51:52;32.05;;;3.00;;
67665;SDS011;54448;51.472;-2.574;2023-11-19T06:54:17;36.28;;;3.92;;
67665;SDS011;54448;51.472;-2.574;2023-11-19T06:56:43;21.40;;;2.45;;
67665;SDS011;54448;51.472;-2.574;2023-11-19T06:59:08;34.17;;;4.18;;
67665;SDS011;54448;51.472;-2.574;2023-11-19T07:01:34;20.00;;;3.15;;
67665;SDS011;54448;51.472;-2.574;2023-11-19T07:04:03;21.45;;;2.83;;
67665;SDS011;54448;51.472;-2.574;2023-11-19T07:06:35;27.63;;;3.70;;
67665;SDS011;54448;51.472;-2.574;2023-11-19T07:09:01;23.85;;;2.67;;
67665;SDS011;54448;51.472;-2.574;2023-11-19T07:11:43;15.88;;;2.22;;
67665;SDS011;54448;51.472;-2.574;2023-11-19T07:14:09;22.45;;;2.80;;
67665;SDS011;54448;51.472;-2.574;2023-11-19T07:16:35;20.48;;;3.05;;
67665;SDS011;54448;51.472;-2.574;2023-11-19T07:19:02;29.05;;;3.00;;
67665;SDS011;54448;51.472;-2.574;2023-11-19T07:21:28;19.25;;;2.92;;
67665;SDS011;54448;51.472;-2.574;2023-11-19T07:23:57;27.55;;;3.47;;
67665;SDS011;54448;51.472;-2.574;2023-11-19T07:26:22;21.58;;;2.78;;
67665;SDS011;54448;51.472;-2.574;2023-11-19T07:28:48;25.23;;;3.13;;
67665;SDS011;54448;51.472;-2.574;2023-11-19T07:31:14;16.65;;;2.13;;
67665;SDS011;54448;51.472;-2.574;2023-11-19T07:33:40;21.42;;;3.50;;
67665;SDS011;54448;51.472;-2.574;2023-11-19T07:36:08;21.10;;;3.10;;
67665;SDS011;54448;51.472;-2.574;2023-11-19T07:38:34;23.55;;;3.25;;
67665;SDS011;54448;51.472;-2.574;2023-11-19T07:40:59;16.55;;;2.65;;
67665;SDS011;54448;51.472;-2.574;2023-11-19T07:43:25;19.27;;;2.67;;
67665;SDS011;54448;51.472;-2.574;2023-11-19T07:45:50;23.52;;;3.08;;
67665;SDS011;54448;51.472;-2.574;2023-11-19T07:48:15;13.43;;;2.42;;
67665;SDS011;54448;51.472;-2.574;2023-11-19T07:50:43;16.65;;;2.38;;
67665;SDS011;54448;51.472;-2.574;2023-11-19T07:53:08;26.63;;;3.22;;
67665;SDS011;54448;51.472;-2.574;2023-11-19T07:55:34;19.65;;;3.35;;
67665;SDS011;54448;51.472;-2.574;2023-11-19T07:57:59;22.73;;;2.60;;
67665;SDS011;54448;51.472;-2.574;2023-11-19T08:00:25;17.88;;;2.90;;
67665;SDS011;54448;51.472;-2.574;2023-11-19T08:02:50;24.38;;;2.75;;
67665;SDS011;54448;51.472;-2.574;2023-11-19T08:05:16;26.70;;;3.92;;
67665;SDS011;54448;51.472;-2.574;2023-11-19T08:07:41;18.98;;;2.55;;
67665;SDS011;54448;51.472;-2.574;2023-11-19T08:10:07;21.88;;;2.72;;
67665;SDS011;54448;51.472;-2.574;2023-11-19T08:12:35;19.63;;;2.55;;
67665;SDS011;54448;51.472;-2.574;2023-11-19T08:15:01;24.98;;;4.25;;
67665;SDS011;54448;51.472;-2.574;2023-11-19T08:17:27;27.92;;;4.35;;
67665;SDS011;54448;51.472;-2.574;2023-11-19T08:19:53;23.75;;;3.28;;
67665;SDS011;54448;51.472;-2.574;2023-11-19T08:22:18;43.83;;;4.20;;
67665;SDS011;54448;51.472;-2.574;2023-11-19T08:24:43;30.25;;;3.20;;
67665;SDS011;54448;51.472;-2.574;2023-11-19T08:27:09;24.65;;;3.10;;
67665;SDS011;54448;51.472;-2.574;2023-11-19T08:29:34;30.77;;;3.65;;
67665;SDS011;54448;51.472;-2.574;2023-11-19T08:32:00;30.38;;;4.50;;
67665;SDS011;54448;51.472;-2.574;2023-11-19T08:34:27;30.25;;;3.08;;
67665;SDS011;54448;51.472;-2.574;2023-11-19T08:36:52;38.22;;;3.50;;
67665;SDS011;54448;51.472;-2.574;2023-11-19T08:39:18;25.83;;;3.70;;
67665;SDS011;54448;51.472;-2.574;2023-11-19T08:41:46;28.77;;;3.88;;
67665;SDS011;54448;51.472;-2.574;2023-11-19T08:44:12;28.92;;;3.50;;
67665;SDS011;54448;51.472;-2.574;2023-11-19T08:46:38;21.52;;;2.70;;
67665;SDS011;54448;51.472;-2.574;2023-11-19T08:49:05;24.55;;;3.58;;
67665;SDS011;54448;51.472;-2.574;2023-11-19T08:51:31;26.00;;;3.55;;
67665;SDS011;54448;51.472;-2.574;2023-11-19T08:53:56;28.33;;;3.42;;
67665;SDS011;54448;51.472;-2.574;2023-11-19T08:56:22;23.55;;;3.50;;
67665;SDS011;54448;51.472;-2.574;2023-11-19T08:58:48;31.10;;;3.10;;
67665;SDS011;54448;51.472;-2.574;2023-11-19T09:01:13;34.08;;;3.63;;
67665;SDS011;54448;51.472;-2.574;2023-11-19T09:03:38;18.35;;;3.13;;
67665;SDS011;54448;51.472;-2.574;2023-11-19T09:06:04;32.17;;;3.28;;
67665;SDS011;54448;51.472;-2.574;2023-11-19T09:08:29;18.55;;;2.88;;
67665;SDS011;54448;51.472;-2.574;2023-11-19T09:10:55;24.35;;;4.13;;
67665;SDS011;54448;51.472;-2.574;2023-11-19T09:13:20;26.65;;;3.00;;
67665;SDS011;54448;51.472;-2.574;2023-11-19T09:15:46;24.80;;;2.75;;
67665;SDS011;54448;51.472;-2.574;2023-11-19T09:18:11;20.77;;;3.05;;
67665;SDS011;54448;51.472;-2.574;2023-11-19T09:20:37;24.13;;;2.80;;
67665;SDS011;54448;51.472;-2.574;2023-11-19T09:23:05;17.40;;;3.08;;
67665;SDS011;54448;51.472;-2.574;2023-11-19T09:25:31;21.27;;;2.72;;
67665;SDS011;54448;51.472;-2.574;2023-11-19T09:27:56;17.70;;;3.08;;
67665;SDS011;54448;51.472;-2.574;2023-11-19T09:30:22;19.35;;;2.75;;
67665;SDS011;54448;51.472;-2.574;2023-11-19T09:32:48;28.15;;;3.00;;
67665;SDS011;54448;51.472;-2.574;2023-11-19T09:35:13;24.95;;;2.63;;
67665;SDS011;54448;51.472;-2.574;2023-11-19T09:37:40;20.00;;;2.85;;
67665;SDS011;54448;51.472;-2.574;2023-11-19T09:40:05;16.27;;;2.50;;
67665;SDS011;54448;51.472;-2.574;2023-11-19T09:42:38;21.13;;;3.20;;
67665;SDS011;54448;51.472;-2.574;2023-11-19T09:45:12;27.05;;;2.85;;
67665;SDS011;54448;51.472;-2.574;2023-11-19T09:47:39;21.30;;;2.95;;
67665;SDS011;54448;51.472;-2.574;2023-11-19T09:50:05;28.42;;;3.15;;
67665;SDS011;54448;51.472;-2.574;2023-11-19T09:52:31;15.43;;;2.65;;
67665;SDS011;54448;51.472;-2.574;2023-11-19T09:54:56;25.90;;;3.03;;
67665;SDS011;54448;51.472;-2.574;2023-11-19T09:57:21;26.55;;;3.03;;
67665;SDS011;54448;51.472;-2.574;2023-11-19T09:59:47;16.10;;;2.20;;
67665;SDS011;54448;51.472;-2.574;2023-11-19T10:02:13;15.20;;;2.30;;
67665;SDS011;54448;51.472;-2.574;2023-11-19T10:04:39;16.90;;;2.92;;
67665;SDS011;54448;51.472;-2.574;2023-11-19T10:07:05;15.48;;;2.42;;
67665;SDS011;54448;51.472;-2.574;2023-11-19T10:09:31;22.77;;;2.70;;
67665;SDS011;54448;51.472;-2.574;2023-11-19T10:11:56;19.92;;;2.40;;
67665;SDS011;54448;51.472;-2.574;2023-11-19T10:14:23;18.88;;;2.50;;
67665;SDS011;54448;51.472;-2.574;2023-11-19T10:16:49;28.95;;;4.03;;
67665;SDS011;54448;51.472;-2.574;2023-11-19T10:19:20;13.05;;;2.60;;
67665;SDS011;54448;51.472;-2.574;2023-11-19T10:21:46;12.23;;;2.70;;
67665;SDS011;54448;51.472;-2.574;2023-11-19T10:24:12;20.92;;;2.60;;
67665;SDS011;54448;51.472;-2.574;2023-11-19T10:26:37;13.63;;;2.13;;
67665;SDS011;54448;51.472;-2.574;2023-11-19T10:29:02;23.42;;;3.00;;
67665;SDS011;54448;51.472;-2.574;2023-11-19T10:31:29;21.45;;;2.70;;
67665;SDS011;54448;51.472;-2.574;2023-11-19T10:33:54;12.80;;;2.47;;
67665;SDS011;54448;51.472;-2.574;2023-11-19T10:36:20;16.80;;;2.47;;
67665;SDS011;54448;51.472;-2.574;2023-11-19T10:38:52;20.25;;;2.45;;
67665;SDS011;54448;51.472;-2.574;2023-11-19T10:41:30;13.05;;;2.25;;
67665;SDS011;54448;51.472;-2.574;2023-11-19T10:43:57;19.13;;;2.25;;
67665;SDS011;54448;51.472;-2.574;2023-11-19T10:46:23;11.30;;;2.40;;
67665;SDS011;54448;51.472;-2.574;2023-11-19T10:49:05;11.65;;;2.67;;
67665;SDS011;54448;51.472;-2.574;2023-11-19T10:51:31;9.27;;;1.48;;
67665;SDS011;54448;51.472;-2.574;2023-11-19T10:53:59;24.98;;;2.67;;
67665;SDS011;54448;51.472;-2.574;2023-11-19T10:56:29;13.63;;;2.38;;
67665;SDS011;54448;51.472;-2.574;2023-11-19T10:58:55;10.20;;;1.88;;
67665;SDS011;54448;51.472;-2.574;2023-11-19T11:01:24;11.32;;;1.80;;
67665;SDS011;54448;51.472;-2.574;2023-11-19T11:03:59;11.60;;;2.05;;
67665;SDS011;54448;51.472;-2.574;2023-11-19T11:06:26;14.30;;;1.70;;
67665;SDS011;54448;51.472;-2.574;2023-11-19T11:08:52;9.32;;;1.77;;
67665;SDS011;54448;51.472;-2.574;2023-11-19T11:11:19;11.20;;;2.08;;
67665;SDS011;54448;51.472;-2.574;2023-11-19T11:13:48;7.88;;;1.65;;
67665;SDS011;54448;51.472;-2.574;2023-11-19T11:16:16;14.90;;;2.10;;
67665;SDS011;54448;51.472;-2.574;2023-11-19T11:18:44;7.90;;;1.17;;
67665;SDS011;54448;51.472;-2.574;2023-11-19T11:21:12;11.10;;;1.60;;
67665;SDS011;54448;51.472;-2.574;2023-11-19T11:37:46;6.82;;;1.33;;
67665;SDS011;54448;51.472;-2.574;2023-11-19T11:40:17;13.38;;;1.83;;
67665;SDS011;54448;51.472;-2.574;2023-11-19T11:42:45;10.55;;;1.45;;
67665;SDS011;54448;51.472;-2.574;2023-11-19T11:45:11;8.85;;;1.58;;
67665;SDS011;54448;51.472;-2.574;2023-11-19T11:50:07;8.70;;;1.52;;
67665;SDS011;54448;51.472;-2.574;2023-11-19T11:52:36;8.68;;;1.48;;
67665;SDS011;54448;51.472;-2.574;2023-11-19T11:57:51;13.43;;;1.25;;
67665;SDS011;54448;51.472;-2.574;2023-11-19T12:03:00;6.38;;;1.00;;
67665;SDS011;54448;51.472;-2.574;2023-11-19T12:05:27;6.50;;;1.20;;
67665;SDS011;54448;51.472;-2.574;2023-11-19T12:07:56;14.93;;;2.08;;
67665;SDS011;54448;51.472;-2.574;2023-11-19T12:10:25;9.90;;;1.60;;
67665;SDS011;54448;51.472;-2.574;2023-11-19T12:12:56;12.85;;;1.33;;
67665;SDS011;54448;51.472;-2.574;2023-11-19T12:15:23;12.43;;;1.73;;
67665;SDS011;54448;51.472;-2.574;2023-11-19T12:17:50;6.93;;;1.15;;
67665;SDS011;54448;51.472;-2.574;2023-11-19T12:20:19;9.38;;;1.27;;
67665;SDS011;54448;51.472;-2.574;2023-11-19T12:22:47;16.13;;;1.50;;
67665;SDS011;54448;51.472;-2.574;2023-11-19T12:25:14;11.07;;;1.33;;
67665;SDS011;54448;51.472;-2.574;2023-11-19T12:27:45;10.48;;;1.45;;
67665;SDS011;54448;51.472;-2.574;2023-11-19T12:30:23;8.80;;;1.00;;
67665;SDS011;54448;51.472;-2.574;2023-11-19T12:32:52;9.45;;;1.55;;
67665;SDS011;54448;51.472;-2.574;2023-11-19T12:35:19;13.88;;;1.75;;
67665;SDS011;54448;51.472;-2.574;2023-11-19T12:37:45;12.18;;;1.92;;
67665;SDS011;54448;51.472;-2.574;2023-11-19T12:40:15;9.32;;;1.65;;
67665;SDS011;54448;51.472;-2.574;2023-11-19T12:42:42;19.15;;;2.08;;
67665;SDS011;54448;51.472;-2.574;2023-11-19T12:45:09;11.52;;;2.03;;
67665;SDS011;54448;51.472;-2.574;2023-11-19T12:47:40;19.02;;;2.30;;
67665;SDS011;54448;51.472;-2.574;2023-11-19T12:50:06;13.85;;;2.10;;
67665;SDS011;54448;51.472;-2.574;2023-11-19T12:52:33;16.65;;;1.58;;
67665;SDS011;54448;51.472;-2.574;2023-11-19T12:54:59;18.60;;;2.05;;
67665;SDS011;54448;51.472;-2.574;2023-11-19T12:57:41;16.95;;;2.17;;
67665;SDS011;54448;51.472;-2.574;2023-11-19T13:00:07;19.45;;;2.55;;
67665;SDS011;54448;51.472;-2.574;2023-11-19T13:02:49;16.40;;;2.58;;
67665;SDS011;54448;51.472;-2.574;2023-11-19T13:08:06;17.17;;;2.25;;
67665;SDS011;54448;51.472;-2.574;2023-11-19T13:10:54;16.48;;;2.42;;
67665;SDS011;54448;51.472;-2.574;2023-11-19T13:13:19;23.92;;;2.85;;
67665;SDS011;54448;51.472;-2.574;2023-11-19T13:15:45;18.98;;;2.05;;
67665;SDS011;54448;51.472;-2.574;2023-11-19T13:18:11;26.45;;;2.83;;
67665;SDS011;54448;51.472;-2.574;2023-11-19T13:20:36;19.40;;;2.88;;
67665;SDS011;54448;51.472;-2.574;2023-11-19T13:23:03;22.75;;;2.80;;
67665;SDS011;54448;51.472;-2.574;2023-11-19T13:25:30;25.60;;;3.72;;
67665;SDS011;54448;51.472;-2.574;2023-11-19T13:27:56;30.35;;;3.97;;
67665;SDS011;54448;51.472;-2.574;2023-11-19T13:30:22;27.42;;;3.17;;
67665;SDS011;54448;51.472;-2.574;2023-11-19T13:32:49;29.50;;;3.88;;
67665;SDS011;54448;51.472;-2.574;2023-11-19T13:35:15;30.40;;;3.78;;
67665;SDS011;54448;51.472;-2.574;2023-11-19T13:37:42;30.67;;;3.90;;
67665;SDS011;54448;51.472;-2.574;2023-11-19T13:40:08;31.75;;;3.33;;
67665;SDS011;54448;51.472;-2.574;2023-11-19T13:42:35;26.52;;;3.10;;
67665;SDS011;54448;51.472;-2.574;2023-11-19T13:45:02;24.48;;;3.80;;
67665;SDS011;54448;51.472;-2.574;2023-11-19T13:47:28;25.15;;;2.55;;
67665;SDS011;54448;51.472;-2.574;2023-11-19T13:49:54;24.50;;;3.20;;
67665;SDS011;54448;51.472;-2.574;2023-11-19T13:52:19;23.98;;;3.03;;
67665;SDS011;54448;51.472;-2.574;2023-11-19T13:54:44;26.65;;;3.53;;
67665;SDS011;54448;51.472;-2.574;2023-11-19T13:57:10;24.77;;;2.65;;
67665;SDS011;54448;51.472;-2.574;2023-11-19T13:59:39;32.17;;;3.78;;
67665;SDS011;54448;51.472;-2.574;2023-11-19T14:02:05;32.92;;;4.20;;
67665;SDS011;54448;51.472;-2.574;2023-11-19T14:04:32;25.85;;;3.70;;
67665;SDS011;54448;51.472;-2.574;2023-11-19T14:06:58;37.05;;;5.22;;
67665;SDS011;54448;51.472;-2.574;2023-11-19T14:09:23;21.58;;;3.72;;
67665;SDS011;54448;51.472;-2.574;2023-11-19T14:11:49;28.85;;;3.70;;
67665;SDS011;54448;51.472;-2.574;2023-11-19T14:14:16;22.13;;;3.22;;
67665;SDS011;54448;51.472;-2.574;2023-11-19T14:16:42;18.95;;;2.88;;
67665;SDS011;54448;51.472;-2.574;2023-11-19T14:19:07;21.48;;;2.88;;
67665;SDS011;54448;51.472;-2.574;2023-11-19T14:21:33;23.98;;;3.45;;
67665;SDS011;54448;51.472;-2.574;2023-11-19T14:23:58;26.40;;;2.88;;
67665;SDS011;54448;51.472;-2.574;2023-11-19T14:26:24;19.52;;;2.95;;
67665;SDS011;54448;51.472;-2.574;2023-11-19T14:28:49;23.40;;;3.05;;
67665;SDS011;54448;51.472;-2.574;2023-11-19T14:31:14;15.98;;;2.38;;
67665;SDS011;54448;51.472;-2.574;2023-11-19T14:33:40;17.48;;;2.47;;
67665;SDS011;54448;51.472;-2.574;2023-11-19T14:36:06;21.95;;;3.20;;
67665;SDS011;54448;51.472;-2.574;2023-11-19T14:38:32;23.60;;;2.83;;
67665;SDS011;54448;51.472;-2.574;2023-11-19T14:40:58;25.38;;;3.05;;
67665;SDS011;54448;51.472;-2.574;2023-11-19T14:43:24;29.10;;;3.45;;
67665;SDS011;54448;51.472;-2.574;2023-11-19T14:45:50;34.67;;;4.82;;